Time;durP1;ratioP1;P1;durP2;ratioP2;P2;SDS_P1;SDS_P2;PMS_P1;PMS_P2;Temp;Humidity;BMP_temperature;BMP_pressure;BME280_temperature;BME280_humidity;BME280_pressure;Samples;Min_cycle;Max_cycle;Signal;HPM_P1;HPM_P2
2024/01/24 00:01:06;;;;;;;13.90;5.72;;;11.20;99.90;;;;;;4993594;28;20050;-73
2024/01/24 00:03:31;;;;;;;18.92;5.95;;;11.20;99.90;;;;;;4993466;28;20031;-73
2024/01/24 00:05:57;;;;;;;12.77;5.47;;;11.30;99.90;;;;;;4993487;28;20022;-73
2024/01/24 00:08:23;;;;;;;16.15;6.63;;;11.40;99.90;;;;;;4993774;28;20081;-73
2024/01/24 00:10:48;;;;;;;14.52;5.45;;;11.40;99.90;;;;;;4993754;28;20027;-73
2024/01/24 00:13:14;;;;;;;15.25;5.95;;;11.40;99.90;;;;;;4993228;28;20032;-73
2024/01/24 00:15:40;;;;;;;17.80;6.40;;;11.50;99.90;;;;;;4993567;28;20084;-73
2024/01/24 00:18:05;;;;;;;13.80;6.10;;;11.50;99.90;;;;;;4993377;28;20080;-73
2024/01/24 00:20:31;;;;;;;18.77;5.90;;;11.50;99.90;;;;;;4993388;28;20062;-73
2024/01/24 00:22:56;;;;;;;13.63;6.03;;;11.50;99.90;;;;;;4992872;28;20046;-73
2024/01/24 00:25:22;;;;;;;14.55;5.80;;;11.50;99.90;;;;;;4993404;28;20034;-73
2024/01/24 00:27:47;;;;;;;20.50;5.40;;;11.50;99.90;;;;;;4993493;28;20026;-73
2024/01/24 00:30:13;;;;;;;16.42;6.03;;;11.50;99.90;;;;;;4994672;28;20027;-73
2024/01/24 00:32:38;;;;;;;15.25;5.63;;;11.60;99.90;;;;;;4996779;28;20034;-73
2024/01/24 00:35:04;;;;;;;14.60;5.72;;;11.60;99.90;;;;;;4996999;28;20038;-73
2024/01/24 00:37:30;;;;;;;16.08;5.35;;;11.60;99.90;;;;;;4996718;28;20035;-73
2024/01/24 00:39:56;;;;;;;13.02;5.80;;;11.60;99.90;;;;;;4996656;28;20041;-73
2024/01/24 00:42:21;;;;;;;13.95;5.38;;;11.70;99.90;;;;;;4996441;28;20030;-72
2024/01/24 00:44:50;;;;;;;10.65;4.65;;;11.70;99.90;;;;;;4996697;28;20077;-72
2024/01/24 00:47:17;;;;;;;10.93;5.15;;;11.70;99.90;;;;;;4996442;28;20023;-73
2024/01/24 00:49:42;;;;;;;14.27;5.82;;;11.80;99.90;;;;;;4995297;28;20484;-73
2024/01/24 00:52:08;;;;;;;13.63;5.35;;;11.80;99.90;;;;;;4996442;28;20057;-73
2024/01/24 00:54:34;;;;;;;11.57;4.32;;;11.80;99.90;;;;;;4996447;28;20026;-73
2024/01/24 00:56:59;;;;;;;10.02;4.45;;;11.80;99.90;;;;;;4996410;28;20026;-73
2024/01/24 00:59:25;;;;;;;11.85;4.40;;;11.80;99.90;;;;;;4996349;28;20038;-73
2024/01/24 01:01:50;;;;;;;8.95;5.05;;;11.90;99.90;;;;;;4996279;28;20065;-71
2024/01/24 01:04:16;;;;;;;9.00;4.60;;;11.90;99.90;;;;;;4996550;28;20450;-73
2024/01/24 01:06:42;;;;;;;11.95;5.00;;;11.90;99.90;;;;;;4996191;28;20022;-71
2024/01/24 01:09:08;;;;;;;12.38;5.40;;;11.90;99.90;;;;;;4995989;28;20019;-71
2024/01/24 01:11:33;;;;;;;8.73;4.95;;;11.90;99.90;;;;;;4996328;28;20503;-72
2024/01/24 01:13:59;;;;;;;13.32;4.72;;;12.00;99.90;;;;;;4996249;28;20026;-71
2024/01/24 01:16:24;;;;;;;10.80;5.05;;;12.00;99.90;;;;;;4996066;28;20404;-71
2024/01/24 01:18:50;;;;;;;9.48;4.00;;;11.90;99.90;;;;;;4996115;28;20030;-71
2024/01/24 01:21:15;;;;;;;19.55;5.50;;;12.00;99.90;;;;;;4996208;28;20045;-72
2024/01/24 01:23:41;;;;;;;11.50;5.68;;;12.00;99.90;;;;;;4996031;28;20400;-70
2024/01/24 01:26:07;;;;;;;12.02;4.55;;;12.10;99.90;;;;;;4996073;28;20032;-72
2024/01/24 01:28:32;;;;;;;11.63;4.57;;;12.10;99.90;;;;;;4995945;28;20030;-72
2024/01/24 01:30:58;;;;;;;9.63;4.78;;;12.10;99.90;;;;;;4995769;28;20108;-72
2024/01/24 01:33:23;;;;;;;13.38;5.25;;;12.10;99.90;;;;;;4995924;28;20038;-71
2024/01/24 01:35:49;;;;;;;12.40;4.60;;;12.20;99.90;;;;;;4995730;28;20019;-71
2024/01/24 01:38:14;;;;;;;11.80;4.80;;;12.20;99.90;;;;;;4995801;28;20034;-72
2024/01/24 01:40:40;;;;;;;10.45;5.00;;;12.30;99.90;;;;;;4995536;28;20042;-72
2024/01/24 01:43:13;;;;;;;7.03;3.75;;;12.20;99.90;;;;;;4995671;28;20038;-72
2024/01/24 01:45:39;;;;;;;7.78;3.75;;;12.30;99.90;;;;;;4995468;28;20539;-73
2024/01/24 01:48:06;;;;;;;6.93;3.83;;;12.30;99.90;;;;;;4995635;28;20045;-71
2024/01/24 01:50:31;;;;;;;10.45;4.95;;;12.50;99.90;;;;;;4995577;28;20531;-71
2024/01/24 01:52:58;;;;;;;9.60;4.07;;;12.50;99.90;;;;;;4995333;28;20022;-72
2024/01/24 01:55:23;;;;;;;13.30;4.50;;;12.60;99.90;;;;;;4995384;28;20390;-73
2024/01/24 01:57:50;;;;;;;8.30;4.28;;;12.60;99.90;;;;;;4995492;28;20093;-72
2024/01/24 02:00:20;;;;;;;8.75;4.57;;;12.60;99.90;;;;;;4995413;28;20034;-72
2024/01/24 02:02:47;;;;;;;11.88;3.90;;;12.70;99.90;;;;;;4993904;28;20058;-73
2024/01/24 02:05:14;;;;;;;9.38;4.20;;;12.70;99.90;;;;;;4995079;28;20026;-72
2024/01/24 02:07:42;;;;;;;7.75;3.63;;;12.70;99.90;;;;;;4993767;28;20022;-73
2024/01/24 02:10:10;;;;;;;5.45;3.22;;;12.70;99.90;;;;;;4995271;28;20026;-72
2024/01/24 02:12:35;;;;;;;8.23;3.50;;;12.80;99.90;;;;;;4994891;28;20088;-73
2024/01/24 02:15:01;;;;;;;9.15;3.97;;;12.80;99.90;;;;;;4994931;28;20027;-73
2024/01/24 02:17:27;;;;;;;7.10;3.72;;;12.70;99.90;;;;;;4994923;28;20377;-73
2024/01/24 02:19:52;;;;;;;10.20;4.75;;;12.60;99.90;;;;;;4995012;28;20034;-73
2024/01/24 02:22:18;;;;;;;8.23;3.70;;;12.50;99.90;;;;;;4994801;28;20483;-72
2024/01/24 02:24:44;;;;;;;9.80;3.90;;;12.50;99.90;;;;;;4994919;28;20397;-73
2024/01/24 02:27:09;;;;;;;9.13;3.20;;;12.40;99.90;;;;;;4994695;28;20531;-71
2024/01/24 02:29:35;;;;;;;7.70;3.60;;;12.40;99.90;;;;;;4994700;28;20042;-72
2024/01/24 02:32:00;;;;;;;7.93;3.55;;;12.40;99.90;;;;;;4994649;28;20025;-72
2024/01/24 02:34:26;;;;;;;7.82;3.63;;;12.50;99.90;;;;;;4994762;28;20026;-71
2024/01/24 02:36:51;;;;;;;5.38;2.85;;;12.50;99.90;;;;;;4994441;28;20037;-71
2024/01/24 02:39:17;;;;;;;7.65;3.70;;;12.60;99.90;;;;;;4994703;28;20022;-71
2024/01/24 02:41:43;;;;;;;6.70;3.90;;;12.50;99.90;;;;;;4994191;28;20018;-72
2024/01/24 02:44:09;;;;;;;7.25;3.78;;;12.50;99.90;;;;;;4994332;28;20179;-73
2024/01/24 02:46:35;;;;;;;5.88;3.60;;;12.50;99.90;;;;;;4994374;28;20428;-72
2024/01/24 02:49:01;;;;;;;4.80;3.17;;;12.50;99.90;;;;;;4994339;28;20026;-73
2024/01/24 02:51:26;;;;;;;6.65;3.05;;;12.50;99.90;;;;;;4994394;28;20076;-72
2024/01/24 02:53:52;;;;;;;6.35;3.13;;;12.50;99.90;;;;;;4994104;28;20037;-72
2024/01/24 02:56:19;;;;;;;6.20;2.95;;;12.50;99.90;;;;;;4994348;28;20026;-73
2024/01/24 02:58:45;;;;;;;7.15;2.78;;;12.50;99.90;;;;;;4994358;28;20540;-73
2024/01/24 03:01:11;;;;;;;5.68;2.65;;;12.60;99.90;;;;;;4994173;28;20085;-73
2024/01/24 03:03:39;;;;;;;4.15;2.45;;;12.60;99.90;;;;;;4994041;28;20436;-73
2024/01/24 03:06:05;;;;;;;5.03;2.28;;;12.60;99.90;;;;;;4994350;28;20238;-73
2024/01/24 03:08:45;;;;;;;6.80;2.53;;;12.60;99.90;;;;;;4994112;28;20598;-73
2024/01/24 03:11:10;;;;;;;4.95;2.10;;;12.70;99.90;;;;;;4994163;28;20076;-73
2024/01/24 03:13:36;;;;;;;5.45;1.77;;;12.70;99.90;;;;;;4994089;28;20116;-73
2024/01/24 03:16:01;;;;;;;4.80;2.17;;;12.80;99.90;;;;;;4994118;28;20038;-73
2024/01/24 03:18:27;;;;;;;3.22;1.70;;;12.80;99.90;;;;;;4993965;28;20444;-73
2024/01/24 03:20:53;;;;;;;2.70;1.50;;;12.90;99.90;;;;;;4994045;28;20084;-73
2024/01/24 03:23:19;;;;;;;3.35;1.70;;;13.00;99.90;;;;;;4993435;28;20042;-73
2024/01/24 03:25:44;;;;;;;3.03;1.48;;;13.00;99.90;;;;;;4994033;28;20049;-73
2024/01/24 03:28:10;;;;;;;4.30;1.38;;;13.00;99.90;;;;;;4993835;28;20034;-73
2024/01/24 03:30:35;;;;;;;5.72;1.42;;;13.10;99.90;;;;;;4993829;28;20026;-73
2024/01/24 03:33:01;;;;;;;2.67;1.20;;;13.10;99.90;;;;;;4993811;28;20037;-72
2024/01/24 03:35:26;;;;;;;3.80;1.48;;;13.30;99.90;;;;;;4992859;28;20037;-73
2024/01/24 03:37:52;;;;;;;2.78;1.20;;;13.30;99.90;;;;;;4993855;28;20069;-73
2024/01/24 03:40:17;;;;;;;3.13;1.08;;;13.30;99.90;;;;;;4993876;28;20062;-72
2024/01/24 03:42:43;;;;;;;3.85;1.35;;;13.40;99.90;;;;;;4993736;28;20439;-73
2024/01/24 03:45:09;;;;;;;1.95;1.13;;;13.40;99.90;;;;;;4993664;28;20026;-73
2024/01/24 03:47:34;;;;;;;2.97;1.27;;;13.40;99.90;;;;;;4993693;28;20101;-72
2024/01/24 03:50:00;;;;;;;1.38;1.20;;;13.50;99.90;;;;;;4993705;28;20157;-72
2024/01/24 03:52:25;;;;;;;1.58;1.13;;;13.40;99.90;;;;;;4993720;28;20061;-72
2024/01/24 03:54:51;;;;;;;4.70;1.38;;;13.20;99.90;;;;;;4993600;28;20037;-73
2024/01/24 03:57:16;;;;;;;2.05;1.45;;;13.10;99.90;;;;;;4993377;28;20456;-73
2024/01/24 03:59:42;;;;;;;2.30;1.40;;;12.80;99.90;;;;;;4993541;28;20034;-72
2024/01/24 04:02:07;;;;;;;2.35;1.58;;;12.80;99.90;;;;;;4993448;28;20069;-73
2024/01/24 04:04:33;;;;;;;1.85;1.30;;;12.80;99.90;;;;;;4994136;28;20125;-73
2024/01/24 04:06:59;;;;;;;2.78;1.90;;;12.80;99.90;;;;;;4997489;28;20032;-73
2024/01/24 04:09:24;;;;;;;1.73;1.40;;;12.70;99.90;;;;;;4997261;28;20034;-73
2024/01/24 04:11:50;;;;;;;2.65;1.70;;;12.70;99.90;;;;;;4997494;28;20033;-73
2024/01/24 04:14:15;;;;;;;1.70;1.55;;;12.60;99.90;;;;;;4997139;28;20022;-73
2024/01/24 04:16:41;;;;;;;3.78;1.98;;;12.60;99.90;;;;;;4997097;28;20030;-73
2024/01/24 04:19:07;;;;;;;2.65;2.20;;;12.60;99.90;;;;;;4997304;28;20109;-71
2024/01/24 04:21:33;;;;;;;5.85;3.78;;;12.50;99.90;;;;;;4997018;28;20023;-73
2024/01/24 04:23:58;;;;;;;5.72;3.85;;;12.50;99.90;;;;;;4996964;28;20242;-72
2024/01/24 04:26:24;;;;;;;5.88;4.65;;;12.40;99.90;;;;;;4997215;28;20098;-72
2024/01/24 04:28:49;;;;;;;5.50;4.93;;;12.20;99.90;;;;;;4997071;28;20033;-72
2024/01/24 04:31:15;;;;;;;4.57;3.92;;;12.20;99.90;;;;;;4996833;28;20038;-72
2024/01/24 04:33:40;;;;;;;3.95;3.53;;;12.30;99.90;;;;;;4996871;28;20392;-72
2024/01/24 04:36:06;;;;;;;3.70;3.40;;;12.30;99.90;;;;;;4996968;28;20026;-72
2024/01/24 04:38:32;;;;;;;3.10;2.90;;;12.40;99.90;;;;;;4996917;28;20035;-72
2024/01/24 04:40:57;;;;;;;3.13;2.85;;;12.50;99.90;;;;;;4996736;28;20512;-73
2024/01/24 04:43:23;;;;;;;3.53;2.72;;;12.50;99.90;;;;;;4996581;28;20492;-72
2024/01/24 04:45:49;;;;;;;2.97;1.90;;;12.90;99.90;;;;;;4995571;28;20026;-72
2024/01/24 04:48:14;;;;;;;2.58;1.40;;;12.90;99.90;;;;;;4996583;28;20031;-73
2024/01/24 04:50:40;;;;;;;1.60;1.50;;;12.90;99.90;;;;;;4996408;28;20026;-72
2024/01/24 04:53:05;;;;;;;1.33;1.13;;;12.70;99.90;;;;;;4996478;28;20042;-73
2024/01/24 04:55:31;;;;;;;1.42;1.17;;;12.90;99.90;;;;;;4996446;28;20045;-73
2024/01/24 04:57:56;;;;;;;1.42;1.17;;;12.90;99.90;;;;;;4996637;28;20033;-72
2024/01/24 05:00:22;;;;;;;2.15;1.10;;;12.80;99.90;;;;;;4996378;28;20424;-72
2024/01/24 05:02:47;;;;;;;1.30;1.20;;;12.90;98.80;;;;;;4996243;28;20027;-73
2024/01/24 05:05:13;;;;;;;1.95;1.40;;;12.80;99.90;;;;;;4996250;28;20030;-71
2024/01/24 05:07:39;;;;;;;2.22;1.40;;;12.80;94.10;;;;;;4996201;28;20037;-71
2024/01/24 05:10:05;;;;;;;2.88;1.40;;;12.80;93.00;;;;;;4996196;28;20030;-72
2024/01/24 05:12:31;;;;;;;4.18;1.73;;;12.80;91.10;;;;;;4996219;28;20046;-71
2024/01/24 05:14:57;;;;;;;2.97;1.42;;;12.70;91.50;;;;;;4996020;28;20026;-72
2024/01/24 05:17:22;;;;;;;3.70;1.58;;;12.70;87.00;;;;;;4995928;28;20026;-71
2024/01/24 05:19:48;;;;;;;3.17;1.20;;;12.60;90.40;;;;;;4996235;28;20035;-73
2024/01/24 05:22:15;;;;;;;4.47;1.38;;;12.70;79.10;;;;;;4995679;28;21990;-74
2024/01/24 05:24:45;;;;;;;3.83;1.75;;;12.70;63.90;;;;;;4995763;28;20026;-73
2024/01/24 05:27:11;;;;;;;2.70;1.45;;;12.60;63.20;;;;;;4995879;28;20481;-73
2024/01/24 05:29:37;;;;;;;6.40;1.58;;;12.50;70.40;;;;;;4996008;28;20516;-73
2024/01/24 05:32:02;;;;;;;2.90;1.40;;;12.50;68.00;;;;;;4995961;28;20064;-73
2024/01/24 05:34:28;;;;;;;4.13;1.38;;;12.70;48.90;;;;;;4995508;28;20073;-73
2024/01/24 05:36:54;;;;;;;4.43;1.45;;;12.70;56.20;;;;;;4995774;28;20037;-72
2024/01/24 05:39:20;;;;;;;3.80;1.42;;;12.60;54.70;;;;;;4995661;28;20022;-73
2024/01/24 05:41:45;;;;;;;4.68;1.92;;;12.60;46.40;;;;;;4995541;28;20113;-73
2024/01/24 05:44:11;;;;;;;5.82;1.85;;;12.60;36.20;;;;;;4995444;28;20487;-73
2024/01/24 05:46:36;;;;;;;5.50;1.67;;;12.60;25.60;;;;;;4995593;28;20534;-71
2024/01/24 05:49:02;;;;;;;8.13;1.67;;;12.70;7.40;;;;;;4995662;28;20027;-71
2024/01/24 05:51:27;;;;;;;6.95;1.77;;;12.60;1.00;;;;;;4995525;28;20473;-72
2024/01/24 05:53:53;;;;;;;7.35;2.42;;;12.60;1.00;;;;;;4995594;28;20034;-72
2024/01/24 05:56:19;;;;;;;10.68;2.20;;;12.70;1.00;;;;;;4995419;28;20030;-73
2024/01/24 05:58:45;;;;;;;8.88;2.13;;;12.70;1.00;;;;;;4995227;28;20060;-72
2024/01/24 06:01:10;;;;;;;7.15;2.15;;;12.70;1.00;;;;;;4995213;28;20539;-73
2024/01/24 06:03:36;;;;;;;7.05;1.83;;;12.70;1.00;;;;;;4994967;28;20023;-73
2024/01/24 06:06:02;;;;;;;10.55;2.25;;;12.70;1.00;;;;;;4994976;28;20022;-73
2024/01/24 06:08:29;;;;;;;9.13;1.80;;;12.70;1.00;;;;;;4995098;28;20030;-73
2024/01/24 06:10:54;;;;;;;7.47;1.75;;;12.70;1.00;;;;;;4995112;28;20110;-73
2024/01/24 06:13:20;;;;;;;8.00;2.30;;;12.70;1.00;;;;;;4994949;28;20536;-73
2024/01/24 06:15:46;;;;;;;8.35;2.17;;;12.60;1.00;;;;;;4995008;28;20117;-72
2024/01/24 06:18:11;;;;;;;6.53;2.10;;;12.60;1.00;;;;;;4994831;28;20030;-73
2024/01/24 06:20:37;;;;;;;8.13;2.40;;;12.50;1.00;;;;;;4994953;28;20439;-72
2024/01/24 06:23:02;;;;;;;15.32;2.90;;;12.50;1.00;;;;;;4994536;28;20085;-72
2024/01/24 06:25:28;;;;;;;13.88;3.10;;;12.70;99.90;;;;;;4994822;28;20416;-72
2024/01/24 06:27:53;;;;;;;16.63;3.00;;;12.60;99.90;;;;;;4994199;28;20477;-72
2024/01/24 06:30:19;;;;;;;18.10;4.07;;;12.60;99.90;;;;;;4994966;28;20030;-72
2024/01/24 06:32:45;;;;;;;16.52;3.72;;;12.50;99.90;;;;;;4993407;28;20038;-71
2024/01/24 06:35:10;;;;;;;18.27;4.13;;;12.40;99.90;;;;;;4994298;28;20038;-73
2024/01/24 06:37:37;;;;;;;20.27;5.07;;;12.30;99.90;;;;;;4992165;28;20034;-72
2024/01/24 06:40:05;;;;;;;24.23;5.38;;;12.30;99.90;;;;;;4992830;28;20084;-72
2024/01/24 06:42:31;;;;;;;24.70;4.00;;;12.20;99.90;;;;;;4992839;28;20088;-70
2024/01/24 06:44:56;;;;;;;23.88;4.30;;;12.20;99.90;;;;;;4991147;28;20030;-72
2024/01/24 06:47:22;;;;;;;18.25;4.13;;;12.10;99.90;;;;;;4994616;28;20029;-73
2024/01/24 06:49:47;;;;;;;19.48;3.67;;;12.10;99.90;;;;;;4979575;28;20031;-73
2024/01/24 06:52:13;;;;;;;20.35;4.10;;;12.10;1.00;;;;;;4993189;28;20438;-72
2024/01/24 06:54:38;;;;;;;19.60;3.63;;;12.20;97.80;;;;;;5000211;28;20058;-73
2024/01/24 06:57:04;;;;;;;17.58;3.70;;;12.10;99.90;;;;;;4993750;28;20528;-73
2024/01/24 06:59:31;;;;;;;19.27;4.05;;;12.10;1.00;;;;;;4992574;28;20134;-73
2024/01/24 07:01:58;;;;;;;27.10;4.15;;;12.20;99.90;;;;;;4993746;28;20433;-72
2024/01/24 07:04:24;;;;;;;18.00;4.07;;;12.20;1.00;;;;;;4991339;28;20492;-72
2024/01/24 07:06:50;;;;;;;24.92;4.93;;;12.40;99.90;;;;;;4992973;28;20053;-72
2024/01/24 07:09:15;;;;;;;20.45;4.75;;;12.50;99.90;;;;;;4994001;28;20037;-71
2024/01/24 07:11:41;;;;;;;21.02;4.25;;;12.40;1.00;;;;;;4993538;28;20026;-72
2024/01/24 07:14:07;;;;;;;20.58;3.78;;;12.40;99.90;;;;;;4992436;28;20404;-72
2024/01/24 07:16:32;;;;;;;23.15;5.05;;;12.30;1.00;;;;;;4991391;28;20073;-72
2024/01/24 07:18:58;;;;;;;25.23;5.07;;;12.30;1.00;;;;;;4993867;28;20037;-72
2024/01/24 07:21:25;;;;;;;17.23;4.30;;;12.30;49.80;;;;;;4993739;28;20057;-71
2024/01/24 07:23:50;;;;;;;18.00;4.15;;;12.30;99.90;;;;;;4989305;28;20108;-73
2024/01/24 07:26:16;;;;;;;19.77;5.18;;;12.20;1.00;;;;;;4992061;28;20022;-72
2024/01/24 07:28:42;;;;;;;28.05;5.22;;;12.10;99.90;;;;;;4992646;28;20113;-71
2024/01/24 07:31:07;;;;;;;18.08;4.53;;;12.10;99.90;;;;;;4991985;28;20027;-72
2024/01/24 07:33:33;;;;;;;22.27;4.18;;;12.00;1.00;;;;;;4993316;28;20042;-72
2024/01/24 07:35:58;;;;;;;21.70;4.22;;;12.10;1.00;;;;;;4993191;28;20461;-70
2024/01/24 07:38:24;;;;;;;29.08;5.80;;;12.00;1.00;;;;;;4992373;28;20027;-70
2024/01/24 07:40:49;;;;;;;26.83;6.30;;;11.90;99.90;;;;;;4993797;28;20117;-71
2024/01/24 07:43:15;;;;;;;28.73;4.68;;;11.60;1.00;;;;;;4996384;28;20034;-72
2024/01/24 07:45:41;;;;;;;26.55;5.10;;;11.50;1.00;;;;;;4997294;28;20022;-72
2024/01/24 07:48:07;;;;;;;28.70;6.05;;;11.40;1.00;;;;;;4995922;28;20072;-72
2024/01/24 07:50:33;;;;;;;26.70;5.07;;;11.50;1.00;;;;;;4990134;28;20030;-72
2024/01/24 07:52:59;;;;;;;25.10;5.15;;;11.30;1.00;;;;;;4995757;28;20053;-73
2024/01/24 07:55:24;;;;;;;35.85;6.38;;;11.30;1.00;;;;;;4996620;28;20042;-72
2024/01/24 07:57:50;;;;;;;28.42;8.77;;;11.30;1.00;;;;;;4995616;28;20038;-72
2024/01/24 08:00:16;;;;;;;27.40;5.95;;;11.20;1.00;;;;;;4995042;28;20041;-73
2024/01/24 08:02:44;;;;;;;33.50;7.38;;;11.20;1.00;;;;;;4996141;28;20264;-72
2024/01/24 08:05:12;;;;;;;34.70;7.32;;;11.20;1.00;;;;;;4990390;28;20031;-72
2024/01/24 08:07:40;;;;;;;29.17;8.65;;;11.20;1.00;;;;;;4997347;28;20034;-72
2024/01/24 08:10:06;;;;;;;32.60;6.32;;;11.10;1.00;;;;;;4996044;28;20042;-73
2024/01/24 08:12:31;;;;;;;34.08;7.32;;;11.10;1.00;;;;;;4995651;28;20404;-71
2024/01/24 08:14:57;;;;;;;46.45;8.00;;;11.00;1.00;;;;;;4994225;28;20029;-73
2024/01/24 08:17:22;;;;;;;30.73;5.50;;;11.00;1.00;;;;;;4997940;28;20081;-73
2024/01/24 08:19:48;;;;;;;35.08;5.90;;;11.10;1.00;;;;;;4994732;28;20038;-72
2024/01/24 08:22:14;;;;;;;36.15;6.72;;;11.10;1.00;;;;;;4996133;28;20528;-73
2024/01/24 08:24:39;;;;;;;37.60;6.95;;;11.20;99.90;;;;;;4995444;28;20034;-72
2024/01/24 08:27:05;;;;;;;38.20;6.65;;;11.20;99.90;;;;;;4994312;28;20046;-72
2024/01/24 08:29:30;;;;;;;35.22;6.43;;;11.40;99.90;;;;;;4990410;28;20475;-72
2024/01/24 08:31:56;;;;;;;42.97;6.05;;;11.50;1.00;;;;;;4993779;28;20034;-73
2024/01/24 08:34:22;;;;;;;37.45;6.22;;;11.40;99.90;;;;;;4998733;28;20030;-73
2024/01/24 08:36:47;;;;;;;35.78;6.03;;;11.40;99.90;;;;;;4993959;28;20472;-74
2024/01/24 08:39:13;;;;;;;38.05;6.90;;;11.50;99.90;;;;;;4995388;28;20109;-74
2024/01/24 08:41:39;;;;;;;37.10;6.63;;;11.50;99.90;;;;;;4994352;28;20038;-74
2024/01/24 08:44:04;;;;;;;41.10;6.95;;;11.50;99.90;;;;;;4999690;28;20507;-73
2024/01/24 08:46:30;;;;;;;31.48;5.93;;;11.50;99.90;;;;;;4999575;28;20034;-72
2024/01/24 08:48:56;;;;;;;31.75;6.47;;;11.40;70.10;;;;;;4998012;28;20094;-73
2024/01/24 08:51:22;;;;;;;32.38;6.35;;;11.50;1.00;;;;;;4997925;28;20493;-73
2024/01/24 08:53:47;;;;;;;36.22;7.05;;;11.90;99.90;;;;;;4995972;28;20037;-72
2024/01/24 08:56:13;;;;;;;32.08;6.85;;;12.00;99.90;;;;;;4993759;28;20035;-73
2024/01/24 08:58:39;;;;;;;33.58;6.22;;;12.00;99.90;;;;;;4997560;28;20061;-73
2024/01/24 09:01:06;;;;;;;31.88;6.30;;;12.00;99.90;;;;;;4994575;28;20077;-73
2024/01/24 09:03:31;;;;;;;28.00;6.45;;;12.00;83.00;;;;;;4994310;28;20088;-73
2024/01/24 09:05:57;;;;;;;37.10;7.65;;;11.80;99.90;;;;;;4994377;28;20038;-73
2024/01/24 09:08:22;;;;;;;43.63;7.90;;;11.70;99.90;;;;;;4994693;28;20033;-73
2024/01/24 09:10:48;;;;;;;39.03;7.80;;;11.70;99.90;;;;;;4995111;28;20440;-73
2024/01/24 09:13:13;;;;;;;40.70;7.63;;;11.60;99.90;;;;;;4999051;28;20034;-73
2024/01/24 09:15:39;;;;;;;38.13;6.93;;;11.60;99.90;;;;;;5005234;28;20080;-72
2024/01/24 09:18:07;;;;;;;30.60;6.50;;;11.60;99.90;;;;;;5007871;28;20042;-72
2024/01/24 09:20:32;;;;;;;42.78;7.68;;;11.50;99.90;;;;;;4994984;28;20030;-73
2024/01/24 09:22:58;;;;;;;45.58;7.85;;;11.50;99.90;;;;;;4995123;28;20050;-72
2024/01/24 09:25:23;;;;;;;40.63;7.75;;;11.50;99.90;;;;;;4997294;28;20487;-73
2024/01/24 09:27:49;;;;;;;40.83;8.07;;;11.60;1.00;;;;;;4995068;28;20038;-72
2024/01/24 09:30:15;;;;;;;42.67;7.82;;;11.60;1.00;;;;;;4995249;28;20045;-73
2024/01/24 09:32:40;;;;;;;32.00;6.85;;;11.70;99.90;;;;;;4997505;28;20026;-73
2024/01/24 09:35:06;;;;;;;46.03;7.43;;;11.80;99.90;;;;;;4998440;28;20040;-73
2024/01/24 09:37:32;;;;;;;35.80;6.65;;;11.70;1.00;;;;;;4991612;28;20069;-73
2024/01/24 09:39:57;;;;;;;42.05;7.47;;;11.60;99.90;;;;;;4998077;28;20437;-71
2024/01/24 09:42:25;;;;;;;34.50;6.95;;;11.60;99.90;;;;;;4993460;28;20496;-73
2024/01/24 09:44:51;;;;;;;31.63;6.82;;;11.60;1.00;;;;;;4999646;28;20018;-72
2024/01/24 09:47:19;;;;;;;37.92;6.43;;;11.70;99.90;;;;;;4993019;28;20637;-73
2024/01/24 09:49:45;;;;;;;36.45;6.85;;;11.50;1.00;;;;;;4995089;28;20033;-73
2024/01/24 09:52:12;;;;;;;38.50;6.75;;;11.60;99.90;;;;;;4994403;28;20023;-72
2024/01/24 09:54:42;;;;;;;32.28;7.15;;;11.50;99.90;;;;;;4994422;28;20088;-73
2024/01/24 09:57:09;;;;;;;33.85;6.82;;;11.50;1.00;;;;;;4996194;28;20064;-73
2024/01/24 09:59:34;;;;;;;36.65;6.82;;;11.40;99.90;;;;;;4999660;28;20031;-72
2024/01/24 10:02:00;;;;;;;34.67;7.20;;;11.40;1.00;;;;;;4995900;28;20093;-72
2024/01/24 10:04:26;;;;;;;32.40;7.30;;;11.40;1.00;;;;;;4993990;28;20046;-73
2024/01/24 10:06:52;;;;;;;34.95;7.55;;;11.40;99.90;;;;;;5001931;28;20043;-70
2024/01/24 10:09:19;;;;;;;44.85;7.88;;;11.30;1.00;;;;;;4995507;28;20732;-72
2024/01/24 10:11:45;;;;;;;42.95;8.50;;;11.40;99.90;;;;;;4993312;28;20493;-72
2024/01/24 10:14:12;;;;;;;43.22;7.63;;;11.30;1.00;;;;;;4993445;28;20133;-71
2024/01/24 10:16:40;;;;;;;38.88;7.53;;;11.30;99.90;;;;;;4992670;28;20038;-72
2024/01/24 10:19:07;;;;;;;32.55;7.15;;;11.30;72.60;;;;;;4995972;28;20045;-72
2024/01/24 10:21:32;;;;;;;39.38;7.43;;;11.30;91.30;;;;;;4994409;28;20034;-73
2024/01/24 10:23:59;;;;;;;38.00;7.57;;;11.30;99.90;;;;;;4992742;28;20046;-72
2024/01/24 10:26:26;;;;;;;44.28;8.48;;;11.30;1.00;;;;;;4998445;28;20484;-73
2024/01/24 10:28:53;;;;;;;40.33;6.97;;;11.30;1.00;;;;;;4992689;28;20112;-73
2024/01/24 10:31:19;;;;;;;42.08;8.00;;;11.30;99.90;;;;;;4996818;28;20031;-71
2024/01/24 10:33:47;;;;;;;39.40;7.28;;;11.40;99.90;;;;;;4991280;28;20026;-71
2024/01/24 10:36:13;;;;;;;36.20;8.48;;;11.40;72.00;;;;;;4992479;28;20045;-71
2024/01/24 10:38:45;;;;;;;42.50;7.15;;;11.50;1.00;;;;;;4992680;28;20030;-72
2024/01/24 10:41:13;;;;;;;38.42;7.55;;;11.50;1.00;;;;;;4997851;28;20041;-71
2024/01/24 10:43:46;;;;;;;39.85;7.75;;;11.50;99.90;;;;;;4993438;28;20112;-71
2024/01/24 10:46:13;;;;;;;36.22;7.47;;;11.60;1.00;;;;;;4995352;28;20030;-71
2024/01/24 10:48:40;;;;;;;38.97;6.93;;;11.60;99.90;;;;;;4989653;28;20536;-71
2024/01/24 10:51:06;;;;;;;33.22;6.70;;;11.60;99.90;;;;;;4987607;28;20041;-71
2024/01/24 10:53:34;;;;;;;35.20;7.25;;;11.70;99.90;;;;;;4992181;28;20034;-72
2024/01/24 10:56:01;;;;;;;32.88;6.47;;;11.80;1.00;;;;;;4990416;28;20038;-71
2024/01/24 10:58:28;;;;;;;29.08;6.82;;;11.60;99.90;;;;;;4990561;28;20077;-71
2024/01/24 11:00:54;;;;;;;34.95;9.63;;;11.70;1.00;;;;;;4999706;28;20483;-72
2024/01/24 11:03:20;;;;;;;39.63;7.47;;;11.70;3.50;;;;;;4998758;28;20481;-72
2024/01/24 11:05:50;;;;;;;35.65;6.63;;;11.80;99.90;;;;;;4997557;28;20030;-72
2024/01/24 11:08:48;;;;;;;30.40;6.97;;;11.80;78.60;;;;;;4993354;28;20125;-72
2024/01/24 11:11:18;;;;;;;40.05;7.05;;;11.80;1.00;;;;;;4991136;28;20026;-72
2024/01/24 11:13:44;;;;;;;33.47;6.57;;;11.70;1.00;;;;;;4990653;28;20117;-72
2024/01/24 11:16:31;;;;;;;34.20;6.13;;;11.60;99.90;;;;;;4988613;28;20519;-70
2024/01/24 11:18:59;;;;;;;31.13;6.90;;;11.60;1.00;;;;;;4988723;28;20400;-72
2024/01/24 11:21:28;;;;;;;38.45;6.53;;;11.70;99.90;;;;;;4992281;28;20057;-71
2024/01/24 11:23:54;;;;;;;37.67;6.93;;;11.60;99.90;;;;;;4997749;28;20046;-71
2024/01/24 11:29:15;;;;;;;36.28;7.28;;;11.60;1.00;;;;;;5038997;28;20740;-71
2024/01/24 11:31:42;;;;;;;35.83;5.82;;;11.70;1.00;;;;;;5051241;28;20025;-71
2024/01/24 11:34:11;;;;;;;32.25;6.45;;;11.70;83.00;;;;;;5048109;28;20112;-70
2024/01/24 11:36:52;;;;;;;30.55;6.65;;;11.70;1.00;;;;;;5049191;28;20017;-71
2024/01/24 11:39:35;;;;;;;33.20;6.95;;;11.60;1.00;;;;;;5049615;28;20434;-72
2024/01/24 11:45:17;;;;;;;35.00;6.22;;;11.70;99.90;;;;;;5067618;28;20402;-71
2024/01/24 11:47:43;;;;;;;36.70;7.20;;;12.00;1.00;;;;;;5053374;28;20124;-73
2024/01/24 11:50:11;;;;;;;29.52;6.60;;;11.60;1.00;;;;;;5048746;28;20033;-73
2024/01/24 11:52:37;;;;;;;30.00;5.65;;;11.50;1.00;;;;;;5048924;28;20104;-73
2024/01/24 11:55:02;;;;;;;33.75;6.63;;;11.50;1.00;;;;;;5047974;28;20515;-73
2024/01/24 11:57:29;;;;;;;32.13;6.20;;;11.50;76.20;;;;;;5050623;28;20028;-73
2024/01/24 11:59:55;;;;;;;29.63;5.90;;;11.50;99.90;;;;;;5051447;28;20086;-73
2024/01/24 12:02:21;;;;;;;35.65;7.85;;;11.40;1.00;;;;;;5052223;28;20396;-74
2024/01/24 12:04:51;;;;;;;36.92;7.07;;;11.40;99.90;;;;;;5041819;28;20043;-72
2024/01/24 12:07:17;;;;;;;36.47;8.00;;;11.40;99.90;;;;;;5046762;28;20328;-73
2024/01/24 12:09:43;;;;;;;30.50;7.68;;;11.40;1.00;;;;;;5050731;28;20095;-73
2024/01/24 12:12:10;;;;;;;30.45;6.70;;;11.40;99.90;;;;;;5037247;28;20026;-72
2024/01/24 12:14:36;;;;;;;34.22;5.90;;;11.40;99.90;;;;;;5050052;28;20032;-74
2024/01/24 12:17:02;;;;;;;26.95;6.88;;;11.40;1.00;;;;;;5048131;28;20037;-73
2024/01/24 12:19:29;;;;;;;23.23;6.20;;;11.40;1.00;;;;;;5049353;28;20399;-72
2024/01/24 12:21:55;;;;;;;28.75;6.25;;;11.40;99.90;;;;;;5048823;28;20025;-73
2024/01/24 12:24:21;;;;;;;33.40;6.10;;;11.40;1.00;;;;;;5047380;28;20052;-73
2024/01/24 12:26:47;;;;;;;32.22;7.70;;;11.40;1.00;;;;;;5050055;28;20029;-72
2024/01/24 12:29:13;;;;;;;35.25;6.97;;;11.50;99.90;;;;;;5056364;28;20108;-73
2024/01/24 12:31:40;;;;;;;29.70;5.85;;;11.40;99.90;;;;;;5053533;28;20025;-72
2024/01/24 12:34:07;;;;;;;36.15;5.60;;;11.40;99.90;;;;;;5047586;28;20139;-71
2024/01/24 12:36:32;;;;;;;31.63;6.38;;;11.40;99.90;;;;;;5053037;28;20135;-71
2024/01/24 12:38:59;;;;;;;29.67;5.30;;;11.40;1.00;;;;;;5051988;28;20088;-71
2024/01/24 12:41:25;;;;;;;37.75;6.75;;;11.40;1.00;;;;;;5048913;28;20122;-70
2024/01/24 12:43:50;;;;;;;37.13;6.43;;;;;;;;;;5047398;28;20049;-71